N755HF PAYA-PAHO

Flight info

Callsign N755HF
Flight time 1h 45m
Altitude 22000
Route JOH
Aircraft PC12/L-SDFGRWY/S

Departure

Time 2026-05-05 11:48
Airport Yakutat Airport (PAYA)

Arrival

Time 2026-05-05 13:33
Airport Homer Airport (PAHO)
Time Latitude Longitude Altitude Speed Heading
2026-05-05 11:40 59.50834 -139.66817 45 ft 0 kts 135°
2026-05-05 11:45 59.50832 -139.66812 45 ft 4 kts 134°
2026-05-05 11:45 59.50813 -139.66701 45 ft 13 kts 72°
2026-05-05 11:45 59.50869 -139.66512 45 ft 19 kts 49°
2026-05-05 11:46 59.50930 -139.66372 45 ft 22 kts 50°
2026-05-05 11:46 59.51003 -139.66197 43 ft 16 kts 78°
2026-05-05 11:46 59.50968 -139.66128 43 ft 0 kts 134°
2026-05-05 11:47 59.50949 -139.66090 43 ft 16 kts 134°
2026-05-05 11:47 59.50640 -139.65468 44 ft 78 kts 131°
2026-05-05 11:47 59.50381 -139.64851 99 ft 91 kts 129°
2026-05-05 11:47 59.50003 -139.63837 335 ft 97 kts 125°
2026-05-05 11:48 59.49062 -139.61858 1074 ft 103 kts 161°
2026-05-05 11:48 59.48377 -139.62305 1433 ft 119 kts 241°
2026-05-05 11:48 59.48533 -139.63912 1903 ft 133 kts 320°
2026-05-05 11:49 59.49155 -139.65124 2511 ft 121 kts 296°
2026-05-05 11:49 59.49650 -139.66608 2839 ft 141 kts 302°
2026-05-05 11:49 59.50221 -139.68253 3228 ft 147 kts 302°
2026-05-05 11:49 59.50791 -139.69901 3674 ft 148 kts 302°
2026-05-05 11:50 59.51381 -139.71581 4134 ft 150 kts 302°
2026-05-05 11:50 59.51983 -139.73299 4613 ft 151 kts 302°
2026-05-05 11:50 59.52580 -139.74986 5060 ft 153 kts 302°
2026-05-05 11:50 59.53199 -139.76694 5520 ft 154 kts 302°
2026-05-05 11:51 59.53838 -139.78406 5975 ft 156 kts 302°
2026-05-05 11:51 59.54499 -139.80126 6418 ft 158 kts 302°
2026-05-05 11:51 59.55174 -139.81850 6852 ft 160 kts 302°
2026-05-05 11:51 59.55864 -139.83579 7271 ft 162 kts 302°
2026-05-05 11:52 59.56573 -139.85319 7696 ft 164 kts 302°
2026-05-05 11:52 59.57282 -139.87093 8104 ft 163 kts 291°
2026-05-05 11:52 59.57783 -139.89079 8538 ft 161 kts 285°
2026-05-05 11:52 59.58264 -139.91085 8988 ft 163 kts 284°
2026-05-05 11:53 59.58761 -139.93103 9442 ft 164 kts 284°
2026-05-05 11:53 59.59276 -139.95130 9880 ft 166 kts 284°
2026-05-05 11:53 59.59804 -139.97179 10306 ft 168 kts 283°
2026-05-05 11:53 59.60246 -139.99287 10716 ft 166 kts 277°
2026-05-05 11:54 59.60617 -140.01430 11137 ft 162 kts 269°
2026-05-05 11:54 59.60864 -140.03602 11562 ft 162 kts 266°
2026-05-05 11:54 59.61034 -140.05772 11991 ft 157 kts 257°
2026-05-05 11:54 59.61106 -140.07928 12434 ft 158 kts 257°
2026-05-05 11:55 59.61179 -140.10093 12883 ft 159 kts 257°
2026-05-05 11:55 59.61248 -140.12272 13327 ft 156 kts 251°
2026-05-05 11:55 59.61183 -140.14383 13764 ft 153 kts 247°
2026-05-05 11:55 59.61096 -140.16483 14175 ft 153 kts 247°
2026-05-05 11:56 59.61009 -140.18582 14583 ft 154 kts 247°
2026-05-05 11:56 59.60921 -140.20688 14994 ft 154 kts 247°
2026-05-05 11:56 59.60826 -140.22789 15403 ft 151 kts 242°
2026-05-05 11:56 59.60660 -140.24798 15796 ft 154 kts 246°
2026-05-05 11:57 59.60690 -140.26991 16211 ft 169 kts 262°
2026-05-05 11:57 59.61003 -140.29305 16628 ft 178 kts 270°
2026-05-05 11:57 59.61399 -140.31631 17051 ft 179 kts 270°
2026-05-05 11:57 59.61796 -140.33970 17472 ft 179 kts 270°
2026-05-05 11:58 59.62186 -140.36315 17902 ft 180 kts 270°
2026-05-05 11:58 59.62576 -140.38673 18310 ft 181 kts 269°
2026-05-05 11:58 59.62964 -140.41035 18669 ft 180 kts 269°
2026-05-05 11:58 59.63343 -140.43394 19021 ft 182 kts 269°
2026-05-05 11:59 59.63743 -140.45761 19384 ft 181 kts 269°
2026-05-05 11:59 59.64135 -140.48130 19753 ft 181 kts 268°
2026-05-05 11:59 59.64524 -140.50503 20111 ft 181 kts 268°
2026-05-05 11:59 59.64912 -140.52872 20468 ft 181 kts 268°
2026-05-05 12:00 59.65301 -140.55247 20824 ft 182 kts 268°
2026-05-05 12:00 59.65690 -140.57627 21183 ft 182 kts 268°
2026-05-05 12:00 59.66081 -140.60016 21540 ft 183 kts 268°
2026-05-05 12:00 59.66469 -140.62407 21893 ft 184 kts 268°
2026-05-05 12:01 59.66868 -140.64922 21924 ft 200 kts 269°
2026-05-05 12:01 59.67308 -140.67657 21938 ft 216 kts 270°
2026-05-05 12:01 59.67781 -140.70532 21934 ft 228 kts 271°
2026-05-05 12:01 59.68284 -140.73585 21935 ft 238 kts 272°
2026-05-05 12:02 59.68801 -140.76756 21935 ft 246 kts 272°
2026-05-05 12:02 59.69329 -140.80017 21928 ft 252 kts 273°
2026-05-05 12:02 59.69869 -140.83354 21934 ft 256 kts 273°
2026-05-05 12:02 59.70416 -140.86745 21931 ft 260 kts 273°
2026-05-05 12:03 59.70969 -140.90177 21930 ft 263 kts 273°
2026-05-05 12:03 59.71523 -140.93629 21930 ft 264 kts 273°
2026-05-05 12:03 59.72080 -140.97111 21932 ft 266 kts 273°
2026-05-05 12:03 59.72641 -141.00618 21931 ft 267 kts 274°
2026-05-05 12:04 59.73200 -141.04128 21924 ft 268 kts 273°
2026-05-05 12:04 59.73760 -141.07645 21925 ft 268 kts 273°
2026-05-05 12:04 59.74320 -141.11178 21928 ft 268 kts 273°
2026-05-05 12:04 59.74881 -141.14718 21929 ft 269 kts 273°
2026-05-05 12:05 59.75434 -141.18215 21931 ft 269 kts 273°
2026-05-05 12:05 59.75993 -141.21761 21922 ft 270 kts 273°
2026-05-05 12:05 59.76553 -141.25321 21927 ft 270 kts 273°
2026-05-05 12:05 59.77112 -141.28873 21926 ft 270 kts 273°
2026-05-05 12:06 59.77669 -141.32423 21926 ft 270 kts 273°
2026-05-05 12:06 59.78224 -141.35973 21926 ft 270 kts 273°
2026-05-05 12:06 59.78782 -141.39544 21930 ft 270 kts 273°
2026-05-05 12:06 59.79337 -141.43109 21920 ft 270 kts 273°
2026-05-05 12:07 59.79891 -141.46671 21926 ft 270 kts 273°
2026-05-05 12:07 59.80444 -141.50233 21926 ft 270 kts 273°
2026-05-05 12:07 59.80996 -141.53798 21926 ft 270 kts 273°
2026-05-05 12:07 59.81547 -141.57362 21926 ft 270 kts 273°
2026-05-05 12:08 59.82090 -141.60883 21927 ft 270 kts 273°
2026-05-05 12:08 59.82632 -141.64408 21920 ft 270 kts 273°
2026-05-05 12:08 59.83180 -141.67974 21922 ft 269 kts 273°
2026-05-05 12:08 59.83725 -141.71532 21921 ft 269 kts 273°
2026-05-05 12:09 59.84270 -141.75098 21920 ft 269 kts 273°
2026-05-05 12:09 59.84813 -141.78655 21919 ft 269 kts 273°
2026-05-05 12:09 59.85356 -141.82222 21919 ft 269 kts 273°
2026-05-05 12:09 59.85898 -141.85785 21915 ft 269 kts 273°
2026-05-05 12:10 59.86438 -141.89344 21917 ft 269 kts 273°
2026-05-05 12:10 59.86978 -141.92913 21913 ft 269 kts 273°
2026-05-05 12:10 59.87516 -141.96474 21916 ft 269 kts 273°
2026-05-05 12:10 59.88052 -142.00035 21912 ft 269 kts 273°
2026-05-05 12:11 59.88588 -142.03595 21911 ft 268 kts 273°
2026-05-05 12:11 59.89122 -142.07156 21910 ft 268 kts 273°
2026-05-05 12:11 59.89656 -142.10724 21908 ft 268 kts 273°
2026-05-05 12:11 59.90188 -142.14285 21903 ft 268 kts 273°
2026-05-05 12:12 59.90720 -142.17849 21905 ft 268 kts 273°
2026-05-05 12:12 59.91250 -142.21410 21903 ft 268 kts 273°
2026-05-05 12:12 59.91779 -142.24970 21904 ft 268 kts 273°
2026-05-05 12:12 59.92306 -142.28528 21904 ft 268 kts 273°
2026-05-05 12:13 59.92833 -142.32092 21899 ft 268 kts 273°
2026-05-05 12:13 59.93358 -142.35651 21903 ft 268 kts 273°
2026-05-05 12:13 59.93875 -142.39168 21902 ft 268 kts 273°
2026-05-05 12:13 59.94399 -142.42729 21895 ft 268 kts 273°
2026-05-05 12:14 59.94921 -142.46297 21891 ft 268 kts 273°
2026-05-05 12:14 59.95444 -142.49867 21897 ft 268 kts 273°
2026-05-05 12:14 59.95948 -142.53324 21902 ft 268 kts 274°
2026-05-05 12:14 59.96469 -142.56899 21886 ft 268 kts 274°
2026-05-05 12:15 59.96988 -142.60469 21900 ft 268 kts 274°
2026-05-05 12:15 59.97507 -142.64050 21890 ft 268 kts 274°
2026-05-05 12:15 59.98024 -142.67626 21890 ft 268 kts 274°
2026-05-05 12:15 59.98542 -142.71208 21889 ft 268 kts 274°
2026-05-05 12:16 59.99051 -142.74745 21890 ft 268 kts 274°
2026-05-05 12:16 59.99567 -142.78333 21897 ft 268 kts 274°
2026-05-05 12:16 60.00081 -142.81918 21891 ft 268 kts 274°
2026-05-05 12:16 60.00595 -142.85507 21893 ft 268 kts 274°
2026-05-05 12:17 60.01107 -142.89094 21886 ft 268 kts 274°
2026-05-05 12:17 60.01619 -142.92686 21890 ft 269 kts 274°
2026-05-05 12:17 60.02125 -142.96242 21892 ft 268 kts 274°
2026-05-05 12:17 60.02634 -142.99833 21893 ft 268 kts 274°
2026-05-05 12:18 60.03143 -143.03429 21885 ft 269 kts 274°
2026-05-05 12:18 60.03653 -143.07038 21885 ft 269 kts 274°
2026-05-05 12:18 60.04160 -143.10634 21886 ft 269 kts 274°
2026-05-05 12:18 60.04668 -143.14247 21888 ft 269 kts 274°
2026-05-05 12:19 60.05173 -143.17846 21886 ft 269 kts 274°
2026-05-05 12:19 60.05676 -143.21444 21885 ft 269 kts 274°
2026-05-05 12:19 60.06180 -143.25051 21884 ft 269 kts 274°
2026-05-05 12:19 60.06683 -143.28662 21883 ft 269 kts 274°
2026-05-05 12:20 60.07179 -143.32229 21884 ft 269 kts 274°
2026-05-05 12:20 60.07681 -143.35848 21884 ft 269 kts 274°
2026-05-05 12:20 60.08181 -143.39459 21881 ft 269 kts 274°
2026-05-05 12:20 60.08680 -143.43072 21884 ft 269 kts 274°
2026-05-05 12:21 60.09179 -143.46693 21876 ft 269 kts 274°
2026-05-05 12:21 60.09676 -143.50313 21881 ft 269 kts 274°
2026-05-05 12:21 60.10173 -143.53933 21873 ft 269 kts 274°
2026-05-05 12:21 60.10668 -143.57549 21877 ft 269 kts 274°
2026-05-05 12:22 60.11163 -143.61177 21873 ft 270 kts 274°
2026-05-05 12:22 60.11656 -143.64799 21874 ft 270 kts 274°
2026-05-05 12:22 60.12150 -143.68432 21873 ft 270 kts 274°
2026-05-05 12:22 60.12641 -143.72057 21872 ft 270 kts 274°
2026-05-05 12:23 60.13133 -143.75694 21871 ft 270 kts 274°
2026-05-05 12:23 60.13624 -143.79327 21868 ft 270 kts 274°
2026-05-05 12:23 60.14115 -143.82976 21869 ft 270 kts 274°
2026-05-05 12:23 60.14597 -143.86568 21866 ft 270 kts 274°
2026-05-05 12:24 60.15092 -143.90257 21868 ft 270 kts 274°
2026-05-05 12:24 60.15572 -143.93849 21870 ft 270 kts 274°
2026-05-05 12:24 60.16057 -143.97486 21860 ft 270 kts 274°
2026-05-05 12:24 60.16543 -144.01137 21863 ft 270 kts 274°
2026-05-05 12:25 60.17027 -144.04788 21863 ft 270 kts 274°
2026-05-05 12:25 60.17511 -144.08436 21860 ft 270 kts 274°
2026-05-05 12:25 60.17992 -144.12078 21860 ft 270 kts 274°
2026-05-05 12:25 60.18473 -144.15731 21857 ft 270 kts 274°
2026-05-05 12:26 60.18953 -144.19378 21859 ft 270 kts 274°
2026-05-05 12:26 60.19433 -144.23038 21852 ft 271 kts 274°
2026-05-05 12:26 60.19911 -144.26697 21852 ft 271 kts 274°
2026-05-05 12:26 60.20391 -144.30369 21859 ft 272 kts 274°
2026-05-05 12:27 60.20871 -144.34054 21850 ft 272 kts 274°
2026-05-05 12:27 60.21350 -144.37740 21850 ft 272 kts 274°
2026-05-05 12:27 60.21827 -144.41417 21849 ft 272 kts 274°
2026-05-05 12:27 60.22303 -144.45098 21851 ft 271 kts 273°
2026-05-05 12:28 60.22777 -144.48777 21851 ft 271 kts 273°
2026-05-05 12:28 60.23249 -144.52447 21844 ft 271 kts 273°
2026-05-05 12:28 60.23720 -144.56117 21842 ft 270 kts 273°
2026-05-05 12:28 60.24181 -144.59708 21851 ft 268 kts 273°
2026-05-05 12:29 60.24645 -144.63356 21842 ft 269 kts 273°
2026-05-05 12:29 60.25111 -144.67011 21844 ft 270 kts 273°
2026-05-05 12:29 60.25577 -144.70677 21843 ft 270 kts 273°
2026-05-05 12:29 60.26043 -144.74349 21844 ft 270 kts 273°
2026-05-05 12:30 60.26508 -144.78022 21844 ft 271 kts 273°
2026-05-05 12:30 60.26972 -144.81697 21843 ft 271 kts 273°
2026-05-05 12:30 60.27434 -144.85373 21845 ft 271 kts 273°
2026-05-05 12:30 60.27895 -144.89047 21842 ft 271 kts 273°
2026-05-05 12:31 60.28351 -144.92687 21837 ft 271 kts 273°
2026-05-05 12:31 60.28800 -144.96279 21839 ft 272 kts 273°
2026-05-05 12:31 60.29261 -144.99975 21840 ft 272 kts 273°
2026-05-05 12:31 60.29720 -145.03664 21843 ft 272 kts 272°
2026-05-05 12:32 60.30179 -145.07366 21844 ft 272 kts 272°
2026-05-05 12:32 60.30636 -145.11065 21838 ft 272 kts 272°
2026-05-05 12:32 60.31092 -145.14762 21839 ft 272 kts 272°
2026-05-05 12:32 60.31548 -145.18464 21842 ft 272 kts 272°
2026-05-05 12:33 60.32003 -145.22168 21843 ft 272 kts 272°
2026-05-05 12:33 60.32456 -145.25874 21841 ft 272 kts 272°
2026-05-05 12:33 60.32909 -145.29578 21844 ft 272 kts 272°
2026-05-05 12:33 60.33346 -145.33168 21844 ft 272 kts 272°
2026-05-05 12:34 60.33645 -145.35626 21843 ft 272 kts 272°
2026-05-05 12:34 60.34241 -145.40540 21844 ft 272 kts 272°
2026-05-05 12:34 60.34689 -145.44251 21846 ft 273 kts 272°
2026-05-05 12:34 60.35139 -145.47975 21847 ft 273 kts 272°
2026-05-05 12:35 60.35585 -145.51688 21846 ft 273 kts 272°
2026-05-05 12:35 60.36032 -145.55413 21845 ft 273 kts 272°
2026-05-05 12:35 60.36334 -145.57932 21848 ft 273 kts 272°
2026-05-05 12:35 60.36778 -145.61657 21844 ft 273 kts 272°
2026-05-05 12:36 60.37223 -145.65390 21842 ft 273 kts 272°
2026-05-05 12:36 60.37665 -145.69114 21840 ft 273 kts 272°
2026-05-05 12:36 60.38109 -145.72858 21839 ft 273 kts 272°
2026-05-05 12:36 60.38546 -145.76557 21839 ft 274 kts 272°
2026-05-05 12:37 60.38988 -145.80299 21841 ft 274 kts 272°
2026-05-05 12:37 60.39428 -145.84044 21835 ft 274 kts 272°
2026-05-05 12:37 60.39867 -145.87792 21833 ft 274 kts 272°
2026-05-05 12:37 60.40306 -145.91540 21828 ft 274 kts 272°
2026-05-05 12:38 60.40743 -145.95288 21826 ft 274 kts 272°
2026-05-05 12:38 60.41180 -145.99047 21823 ft 274 kts 272°
2026-05-05 12:38 60.41615 -146.02800 21819 ft 274 kts 272°
2026-05-05 12:38 60.42051 -146.06564 21815 ft 274 kts 272°
2026-05-05 12:39 60.42485 -146.10329 21811 ft 274 kts 272°
2026-05-05 12:39 60.42918 -146.14087 21806 ft 275 kts 272°
2026-05-05 12:39 60.43345 -146.17813 21804 ft 274 kts 272°
2026-05-05 12:39 60.43776 -146.21581 21800 ft 275 kts 272°
2026-05-05 12:40 60.44206 -146.25348 21798 ft 275 kts 272°
2026-05-05 12:40 60.44637 -146.29131 21799 ft 275 kts 272°
2026-05-05 12:40 60.45066 -146.32907 21804 ft 275 kts 272°
2026-05-05 12:40 60.45494 -146.36694 21797 ft 276 kts 272°
2026-05-05 12:41 60.45921 -146.40479 21792 ft 276 kts 272°
2026-05-05 12:41 60.46348 -146.44271 21794 ft 276 kts 272°
2026-05-05 12:41 60.46774 -146.48060 21794 ft 276 kts 272°
2026-05-05 12:41 60.47198 -146.51853 21793 ft 276 kts 272°
2026-05-05 12:42 60.47621 -146.55642 21791 ft 276 kts 272°
2026-05-05 12:42 60.47933 -146.59440 21792 ft 265 kts 259°
2026-05-05 12:42 60.47648 -146.62992 21792 ft 250 kts 243°
2026-05-05 12:42 60.47138 -146.66356 21787 ft 250 kts 242°
2026-05-05 12:43 60.46627 -146.69725 21789 ft 251 kts 243°
2026-05-05 12:43 60.46122 -146.73111 21788 ft 251 kts 243°
2026-05-05 12:43 60.45617 -146.76495 21779 ft 251 kts 243°
2026-05-05 12:43 60.45107 -146.79883 21787 ft 251 kts 243°
2026-05-05 12:44 60.44596 -146.83273 21783 ft 251 kts 243°
2026-05-05 12:44 60.44085 -146.86658 21783 ft 252 kts 243°
2026-05-05 12:44 60.43573 -146.90045 21782 ft 252 kts 243°
2026-05-05 12:44 60.43059 -146.93439 21779 ft 252 kts 243°
2026-05-05 12:45 60.42544 -146.96833 21781 ft 252 kts 243°
2026-05-05 12:45 60.42034 -147.00183 21776 ft 252 kts 243°
2026-05-05 12:45 60.41517 -147.03575 21779 ft 253 kts 243°
2026-05-05 12:45 60.40998 -147.06975 21779 ft 253 kts 243°
2026-05-05 12:46 60.40478 -147.10371 21773 ft 253 kts 243°
2026-05-05 12:46 60.39956 -147.13775 21773 ft 253 kts 243°
2026-05-05 12:46 60.39433 -147.17178 21775 ft 253 kts 243°
2026-05-05 12:46 60.38909 -147.20582 21772 ft 253 kts 243°
2026-05-05 12:47 60.38385 -147.23981 21772 ft 253 kts 243°
2026-05-05 12:47 60.37859 -147.27384 21770 ft 254 kts 243°
2026-05-05 12:47 60.37332 -147.30785 21775 ft 254 kts 243°
2026-05-05 12:47 60.36804 -147.34189 21771 ft 254 kts 243°
2026-05-05 12:48 60.36274 -147.37596 21765 ft 254 kts 243°
2026-05-05 12:48 60.35743 -147.41006 21770 ft 254 kts 243°
2026-05-05 12:48 60.35211 -147.44414 21769 ft 255 kts 243°
2026-05-05 12:48 60.34677 -147.47827 21767 ft 255 kts 243°
2026-05-05 12:49 60.34143 -147.51239 21768 ft 255 kts 243°
2026-05-05 12:49 60.33607 -147.54653 21765 ft 255 kts 243°
2026-05-05 12:49 60.33071 -147.58055 21765 ft 255 kts 243°
2026-05-05 12:49 60.32531 -147.61485 21770 ft 256 kts 243°
2026-05-05 12:50 60.31991 -147.64904 21770 ft 256 kts 243°
2026-05-05 12:50 60.31450 -147.68324 21762 ft 257 kts 243°
2026-05-05 12:50 60.30906 -147.71751 21757 ft 257 kts 243°
2026-05-05 12:50 60.30373 -147.75122 21762 ft 254 kts 243°
2026-05-05 12:51 60.29832 -147.78515 21768 ft 255 kts 243°
2026-05-05 12:51 60.29289 -147.81914 21766 ft 256 kts 243°
2026-05-05 12:51 60.28743 -147.85330 21770 ft 256 kts 243°
2026-05-05 12:51 60.28197 -147.88744 21777 ft 256 kts 243°
2026-05-05 12:52 60.27651 -147.92152 21771 ft 256 kts 243°
2026-05-05 12:52 60.27100 -147.95580 21774 ft 256 kts 243°
2026-05-05 12:52 60.26548 -147.99006 21774 ft 257 kts 243°
2026-05-05 12:52 60.25995 -148.02431 21775 ft 257 kts 243°
2026-05-05 12:53 60.25442 -148.05852 21772 ft 257 kts 243°
2026-05-05 12:53 60.24897 -148.09220 21775 ft 257 kts 244°
2026-05-05 12:53 60.24345 -148.12623 21766 ft 257 kts 244°
2026-05-05 12:53 60.23792 -148.16025 21776 ft 257 kts 244°
2026-05-05 12:54 60.22676 -148.22869 21774 ft 257 kts 244°
2026-05-05 12:54 60.22118 -148.26283 21773 ft 258 kts 244°
2026-05-05 12:54 60.21555 -148.29716 21768 ft 259 kts 244°
2026-05-05 12:55 60.20990 -148.33160 21758 ft 259 kts 244°
2026-05-05 12:55 60.20432 -148.36553 21765 ft 259 kts 244°
2026-05-05 12:55 60.19867 -148.39985 21760 ft 259 kts 244°
2026-05-05 12:55 60.19298 -148.43423 21759 ft 260 kts 244°
2026-05-05 12:56 60.18730 -148.46862 21755 ft 260 kts 244°
2026-05-05 12:56 60.18159 -148.50305 21753 ft 260 kts 244°
2026-05-05 12:56 60.17588 -148.53748 21749 ft 259 kts 244°
2026-05-05 12:56 60.17017 -148.57182 21744 ft 259 kts 244°
2026-05-05 12:57 60.16444 -148.60618 21741 ft 259 kts 244°
2026-05-05 12:57 60.15871 -148.64047 21740 ft 259 kts 244°
2026-05-05 12:57 60.15297 -148.67477 21735 ft 259 kts 244°
2026-05-05 12:57 60.14724 -148.70893 21726 ft 259 kts 245°
2026-05-05 12:58 60.14148 -148.74325 21729 ft 259 kts 245°
2026-05-05 12:58 60.13582 -148.77690 21724 ft 260 kts 245°
2026-05-05 12:58 60.13025 -148.80993 21724 ft 261 kts 245°
2026-05-05 12:58 60.12445 -148.84429 21721 ft 260 kts 245°
2026-05-05 12:59 60.11863 -148.87868 21717 ft 261 kts 245°
2026-05-05 12:59 60.11279 -148.91314 21716 ft 261 kts 245°
2026-05-05 12:59 60.10694 -148.94760 21715 ft 261 kts 245°
2026-05-05 13:00 60.09523 -149.01639 21715 ft 260 kts 245°
2026-05-05 13:00 60.08944 -149.05025 21710 ft 260 kts 245°
2026-05-05 13:01 60.07170 -149.15376 21373 ft 263 kts 245°
2026-05-05 13:01 60.06574 -149.18845 21166 ft 264 kts 246°
2026-05-05 13:01 60.05976 -149.22318 20949 ft 263 kts 246°
2026-05-05 13:01 60.05377 -149.25783 20741 ft 263 kts 246°
2026-05-05 13:02 60.04778 -149.29243 20530 ft 264 kts 246°
2026-05-05 13:02 60.04177 -149.32707 20317 ft 263 kts 246°
2026-05-05 13:02 60.03578 -149.36159 20108 ft 262 kts 246°
2026-05-05 13:02 60.02979 -149.39601 19904 ft 261 kts 246°
2026-05-05 13:03 60.02382 -149.43026 19698 ft 261 kts 246°
2026-05-05 13:03 60.01783 -149.46456 19492 ft 261 kts 246°
2026-05-05 13:03 60.01187 -149.49860 19293 ft 260 kts 246°
2026-05-05 13:03 60.00591 -149.53260 19093 ft 259 kts 246°
2026-05-05 13:04 59.99993 -149.56662 18893 ft 260 kts 246°
2026-05-05 13:04 59.99393 -149.60071 18687 ft 260 kts 246°
2026-05-05 13:04 59.98799 -149.63445 18491 ft 260 kts 246°
2026-05-05 13:04 59.98198 -149.66848 18293 ft 260 kts 246°
2026-05-05 13:05 59.97597 -149.70246 18101 ft 260 kts 246°
2026-05-05 13:05 59.96994 -149.73645 17900 ft 260 kts 246°
2026-05-05 13:05 59.96392 -149.77039 17674 ft 260 kts 246°
2026-05-05 13:05 59.95788 -149.80433 17447 ft 260 kts 246°
2026-05-05 13:06 59.95183 -149.83830 17232 ft 259 kts 245°
2026-05-05 13:06 59.94578 -149.87223 17004 ft 259 kts 245°
2026-05-05 13:06 59.93974 -149.90598 16783 ft 259 kts 245°
2026-05-05 13:06 59.93368 -149.93978 16564 ft 259 kts 245°
2026-05-05 13:07 59.92760 -149.97369 16348 ft 260 kts 245°
2026-05-05 13:07 59.92152 -150.00754 16131 ft 260 kts 245°
2026-05-05 13:07 59.91556 -150.04059 15930 ft 260 kts 245°
2026-05-05 13:07 59.90942 -150.07460 15725 ft 261 kts 245°
2026-05-05 13:08 59.90327 -150.10863 15502 ft 261 kts 245°
2026-05-05 13:08 59.89713 -150.14255 15291 ft 261 kts 245°
2026-05-05 13:08 59.89097 -150.17654 15086 ft 261 kts 245°
2026-05-05 13:08 59.88479 -150.21053 14877 ft 261 kts 245°
2026-05-05 13:09 59.87862 -150.24441 14674 ft 260 kts 245°
2026-05-05 13:09 59.87242 -150.27835 14471 ft 261 kts 245°
2026-05-05 13:09 59.86624 -150.31220 14267 ft 261 kts 245°
2026-05-05 13:09 59.86002 -150.34617 14067 ft 261 kts 245°
2026-05-05 13:10 59.85379 -150.38016 13869 ft 262 kts 245°
2026-05-05 13:10 59.84764 -150.41365 13667 ft 261 kts 245°
2026-05-05 13:10 59.84140 -150.44757 13469 ft 260 kts 245°
2026-05-05 13:10 59.83508 -150.48182 13250 ft 261 kts 245°
2026-05-05 13:11 59.82891 -150.51524 13037 ft 261 kts 245°
2026-05-05 13:11 59.82263 -150.54916 12812 ft 261 kts 245°
2026-05-05 13:11 59.81636 -150.58305 12600 ft 261 kts 245°
2026-05-05 13:11 59.81007 -150.61691 12387 ft 262 kts 245°
2026-05-05 13:12 59.80376 -150.65081 12171 ft 261 kts 245°
2026-05-05 13:12 59.79748 -150.68457 11954 ft 261 kts 245°
2026-05-05 13:12 59.79117 -150.71837 11741 ft 260 kts 245°
2026-05-05 13:12 59.78485 -150.75215 11538 ft 262 kts 245°
2026-05-05 13:13 59.77849 -150.78611 11320 ft 263 kts 245°
2026-05-05 13:13 59.77213 -150.82002 11119 ft 262 kts 245°
2026-05-05 13:13 59.76577 -150.85387 10914 ft 262 kts 245°
2026-05-05 13:13 59.75939 -150.88776 10704 ft 262 kts 245°
2026-05-05 13:14 59.75600 -150.90575 10596 ft 262 kts 245°
2026-05-05 13:14 59.74987 -150.93819 10395 ft 261 kts 245°
2026-05-05 13:14 59.74369 -150.97091 10202 ft 261 kts 245°
2026-05-05 13:14 59.73918 -150.99470 10061 ft 261 kts 245°
2026-05-05 13:15 59.73287 -151.02799 9863 ft 261 kts 245°
2026-05-05 13:15 59.72641 -151.06201 9662 ft 261 kts 245°
2026-05-05 13:15 59.72001 -151.09563 9455 ft 261 kts 245°
2026-05-05 13:15 59.71369 -151.12877 9240 ft 261 kts 245°
2026-05-05 13:16 59.70719 -151.16281 9020 ft 261 kts 245°
2026-05-05 13:16 59.70075 -151.19644 8804 ft 261 kts 245°
2026-05-05 13:16 59.69441 -151.22955 8589 ft 261 kts 245°
2026-05-05 13:16 59.68871 -151.26358 8367 ft 261 kts 256°
2026-05-05 13:17 59.68431 -151.29802 8157 ft 258 kts 247°
2026-05-05 13:17 59.67804 -151.33126 7946 ft 257 kts 244°
2026-05-05 13:17 59.67123 -151.36419 7737 ft 259 kts 244°
2026-05-05 13:17 59.66443 -151.39719 7526 ft 258 kts 246°
2026-05-05 13:18 59.66090 -151.43225 7307 ft 262 kts 259°
2026-05-05 13:18 59.65851 -151.46810 7056 ft 264 kts 259°
2026-05-05 13:18 59.65588 -151.50421 6801 ft 266 kts 258°
2026-05-05 13:18 59.65291 -151.54028 6642 ft 264 kts 258°
2026-05-05 13:19 59.64999 -151.57563 6640 ft 257 kts 258°
2026-05-05 13:19 59.64723 -151.61013 6639 ft 252 kts 258°
2026-05-05 13:19 59.64451 -151.64411 6638 ft 248 kts 258°
2026-05-05 13:19 59.64179 -151.67766 6634 ft 246 kts 258°
2026-05-05 13:20 59.63909 -151.71092 6623 ft 245 kts 258°
2026-05-05 13:20 59.63634 -151.74456 6321 ft 251 kts 258°
2026-05-05 13:20 59.63360 -151.77829 6030 ft 253 kts 259°
2026-05-05 13:20 59.63079 -151.81267 5766 ft 253 kts 259°
2026-05-05 13:21 59.62797 -151.84694 5498 ft 252 kts 259°
2026-05-05 13:21 59.62515 -151.88107 5231 ft 251 kts 259°
2026-05-05 13:21 59.62233 -151.91507 4963 ft 250 kts 260°
2026-05-05 13:21 59.61860 -151.94830 4702 ft 247 kts 248°
2026-05-05 13:22 59.60924 -151.97615 4449 ft 244 kts 223°
2026-05-05 13:22 59.59522 -151.99412 4179 ft 239 kts 198°
2026-05-05 13:22 59.57908 -151.99970 3922 ft 234 kts 174°
2026-05-05 13:22 59.56411 -151.99334 3671 ft 209 kts 153°
2026-05-05 13:23 59.55246 -151.97909 3417 ft 187 kts 137°
2026-05-05 13:23 59.54593 -151.96913 3399 ft 171 kts 137°
2026-05-05 13:23 59.53705 -151.95584 3389 ft 150 kts 137°
2026-05-05 13:23 59.52913 -151.94385 3392 ft 137 kts 137°
2026-05-05 13:24 59.52191 -151.93248 3412 ft 131 kts 130°
2026-05-05 13:24 59.51500 -151.92128 3410 ft 129 kts 139°
2026-05-05 13:24 59.50768 -151.91088 3411 ft 129 kts 137°
2026-05-05 13:24 59.50467 -151.89711 3428 ft 114 kts 55°
2026-05-05 13:25 59.50868 -151.88454 3504 ft 111 kts 81°
2026-05-05 13:25 59.50904 -151.86965 3524 ft 107 kts 70°
2026-05-05 13:25 59.51150 -151.85598 3505 ft 105 kts 64°
2026-05-05 13:25 59.51509 -151.84437 3540 ft 95 kts 59°
2026-05-05 13:26 59.51863 -151.83363 3548 ft 93 kts 58°
2026-05-05 13:26 59.52226 -151.82319 3549 ft 92 kts 58°
2026-05-05 13:26 59.52585 -151.81279 3541 ft 92 kts 57°
2026-05-05 13:26 59.52987 -151.80256 3552 ft 98 kts 59°
2026-05-05 13:27 59.53370 -151.79117 3616 ft 101 kts 58°
2026-05-05 13:27 59.53771 -151.77967 3656 ft 104 kts 58°
2026-05-05 13:27 59.54210 -151.76720 3551 ft 117 kts 57°
2026-05-05 13:27 59.54696 -151.75358 3394 ft 125 kts 57°
2026-05-05 13:28 59.55204 -151.73932 3218 ft 125 kts 56°
2026-05-05 13:28 59.55678 -151.72601 3051 ft 114 kts 56°
2026-05-05 13:28 59.56130 -151.71336 2900 ft 112 kts 56°
2026-05-05 13:28 59.56570 -151.70107 2748 ft 110 kts 56°
2026-05-05 13:29 59.57013 -151.68869 2596 ft 110 kts 56°
2026-05-05 13:29 59.57451 -151.67643 2450 ft 109 kts 55°
2026-05-05 13:29 59.57888 -151.66420 2290 ft 108 kts 56°
2026-05-05 13:29 59.58321 -151.65205 2154 ft 108 kts 56°
2026-05-05 13:30 59.58753 -151.63995 1997 ft 107 kts 55°
2026-05-05 13:30 59.59185 -151.62786 1840 ft 108 kts 56°
2026-05-05 13:30 59.59620 -151.61568 1696 ft 108 kts 56°
2026-05-05 13:30 59.60056 -151.60347 1545 ft 109 kts 56°
2026-05-05 13:31 59.60491 -151.59126 1383 ft 109 kts 55°
2026-05-05 13:31 59.60928 -151.57898 1214 ft 109 kts 55°
2026-05-05 13:31 59.61366 -151.56668 1047 ft 109 kts 56°
2026-05-05 13:31 59.61805 -151.55436 889 ft 110 kts 55°
2026-05-05 13:32 59.62251 -151.54183 734 ft 112 kts 56°
2026-05-05 13:32 59.62689 -151.52944 648 ft 109 kts 55°
2026-05-05 13:32 59.63125 -151.51736 478 ft 106 kts 56°
2026-05-05 13:32 59.63531 -151.50591 314 ft 102 kts 55°
2026-05-05 13:33 59.63934 -151.49443 170 ft 101 kts 56°
2026-05-05 13:33 59.64321 -151.48340 87 ft 91 kts 56°
2026-05-05 13:33 59.64627 -151.47486 88 ft 57 kts 55°
2026-05-05 13:33 59.64768 -151.47129 89 ft 24 kts 52°
2026-05-05 13:34 59.64742 -151.47125 87 ft 21 kts 239°
2026-05-05 13:34 59.64641 -151.47435 88 ft 30 kts 236°
2026-05-05 13:34 59.64515 -151.47794 89 ft 33 kts 234°
2026-05-05 13:34 59.64378 -151.48185 87 ft 36 kts 236°
2026-05-05 13:35 59.64257 -151.48514 88 ft 16 kts 231°
2026-05-05 13:35 59.64159 -151.48461 88 ft 9 kts 145°
2026-05-05 13:35 59.64115 -151.48441 89 ft 7 kts 233°
2026-05-05 13:35 59.64095 -151.48436 89 ft 1 kts 147°
2026-05-05 13:42 59.64094 -151.48436 89 ft 0 kts 148°
2026-05-05 13:43 59.64095 -151.48436 88 ft 0 kts 151°
2026-05-05 13:43 59.64095 -151.48435 88 ft 0 kts 151°
2026-05-05 13:43 59.64095 -151.48436 88 ft 0 kts 151°
2026-05-05 13:43 59.64095 -151.48435 88 ft 0 kts 151°